Time;durP1;ratioP1;P1;durP2;ratioP2;P2;SDS_P1;SDS_P2;PMS_P1;PMS_P2;Temp;Humidity;BMP_temperature;BMP_pressure;BME280_temperature;BME280_humidity;BME280_pressure;Samples;Min_cycle;Max_cycle;Signal;HPM_P1;HPM_P2
2023/04/29 00:03:55;;;;;;;16.35;6.63;;;;;12.40;95949.00;;;;8293218;28;20229;-74
2023/04/29 00:08:00;;;;;;;18.67;6.43;;;;;12.40;95947.00;;;;8285833;28;20316;-74
2023/04/29 00:12:06;;;;;;;15.07;6.65;;;;;12.40;95940.00;;;;8291731;28;20268;-74
2023/04/29 00:16:10;;;;;;;17.95;6.53;;;;;12.40;95944.00;;;;8290161;28;20661;-74
2023/04/29 00:20:14;;;;;;;16.83;6.65;;;;;12.40;95925.00;;;;8288932;28;20266;-75
2023/04/29 00:24:18;;;;;;;12.40;6.57;;;;;12.50;95929.00;;;;8277113;28;20745;-74
2023/04/29 00:28:22;;;;;;;16.83;6.93;;;;;12.50;95919.00;;;;8289921;28;20214;-74
2023/04/29 00:32:28;;;;;;;13.75;6.60;;;;;12.50;95919.00;;;;8271437;28;20196;-75
2023/04/29 00:36:32;;;;;;;23.63;7.05;;;;;12.50;95908.00;;;;8280018;28;20465;-74
2023/04/29 00:40:42;;;;;;;15.35;6.78;;;;;12.50;95905.00;;;;8288187;28;20240;-75
2023/04/29 00:44:45;;;;;;;18.73;7.35;;;;;12.50;95898.00;;;;8288346;28;20745;-74
2023/04/29 00:48:49;;;;;;;14.13;6.88;;;;;12.60;95912.00;;;;8290464;28;20679;-75
2023/04/29 00:52:52;;;;;;;20.42;7.18;;;;;12.50;95914.00;;;;8286793;28;20206;-74
2023/04/29 00:56:58;;;;;;;18.45;8.57;;;;;12.50;95916.00;;;;8288507;28;20202;-74
2023/04/29 01:01:02;;;;;;;18.10;8.18;;;;;12.60;95926.00;;;;8280190;28;20587;-75
2023/04/29 01:05:09;;;;;;;17.23;7.65;;;;;12.60;95916.00;;;;8273832;28;20286;-75
2023/04/29 01:09:33;;;;;;;12.98;7.03;;;;;12.60;95913.00;;;;8278868;28;20748;-74
2023/04/29 01:13:44;;;;;;;17.77;8.05;;;;;12.60;95917.00;;;;8284166;28;20211;-74
2023/04/29 01:17:54;;;;;;;18.35;7.82;;;;;12.60;95905.00;;;;8277347;28;20685;-74
2023/04/29 01:22:02;;;;;;;17.50;7.38;;;;;12.60;95919.00;;;;8275023;28;20237;-72
2023/04/29 01:26:10;;;;;;;20.92;8.13;;;;;12.50;95898.00;;;;8285761;28;20715;-72
2023/04/29 01:30:25;;;;;;;23.35;9.05;;;;;12.50;95897.00;;;;8287338;28;20258;-73
2023/04/29 01:34:39;;;;;;;25.58;8.95;;;;;12.60;95903.00;;;;8285496;28;20244;-73
2023/04/29 01:38:49;;;;;;;25.70;8.80;;;;;12.60;95906.00;;;;8282786;28;20206;-73
2023/04/29 01:43:02;;;;;;;30.45;9.38;;;;;12.60;95899.00;;;;8281449;28;20231;-72
2023/04/29 01:47:06;;;;;;;28.90;9.20;;;;;12.60;95895.00;;;;8287506;28;20836;-73
2023/04/29 01:51:12;;;;;;;28.92;8.68;;;;;12.60;95901.00;;;;8286109;28;20297;-71
2023/04/29 01:55:15;;;;;;;28.83;9.07;;;;;12.60;95901.00;;;;8284330;28;20205;-73
2023/04/29 01:59:19;;;;;;;43.15;10.13;;;;;12.60;95910.00;;;;8282148;28;20237;-74
2023/04/29 02:03:23;;;;;;;32.25;10.15;;;;;12.60;95918.00;;;;8283723;28;20229;-74
2023/04/29 02:07:28;;;;;;;27.27;8.85;;;;;12.60;95923.00;;;;8280356;28;20275;-75
2023/04/29 02:11:31;;;;;;;22.10;8.07;;;;;12.50;95929.00;;;;8265869;28;20734;-75
2023/04/29 02:15:40;;;;;;;25.58;8.80;;;;;12.60;95921.00;;;;8283651;28;20220;-75
2023/04/29 02:19:44;;;;;;;26.58;9.63;;;;;12.70;95914.00;;;;8264992;28;20301;-76
2023/04/29 02:23:49;;;;;;;27.55;9.60;;;;;12.80;95915.00;;;;8276508;28;20198;-75
2023/04/29 02:27:53;;;;;;;27.23;9.68;;;;;12.80;95915.00;;;;8284214;28;20236;-76
2023/04/29 02:31:58;;;;;;;25.50;9.60;;;;;12.80;95917.00;;;;8278535;28;20211;-73
2023/04/29 02:36:04;;;;;;;24.75;9.65;;;;;12.90;95916.00;;;;8280306;28;20214;-73
2023/04/29 02:40:10;;;;;;;30.52;9.88;;;;;12.90;95916.00;;;;8283453;28;20320;-74
2023/04/29 02:44:13;;;;;;;31.60;10.40;;;;;12.90;95914.00;;;;8285020;28;20204;-74
2023/04/29 02:48:19;;;;;;;43.28;11.10;;;;;13.00;95909.00;;;;8283518;28;20296;-74
2023/04/29 02:52:25;;;;;;;32.90;10.35;;;;;12.90;95912.00;;;;8281838;28;21544;-73
2023/04/29 02:56:28;;;;;;;40.55;10.52;;;;;12.90;95918.00;;;;8284119;28;20264;-74
2023/04/29 03:00:31;;;;;;;33.35;10.23;;;;;12.90;95910.00;;;;8258387;28;20304;-75
2023/04/29 03:04:36;;;;;;;33.45;9.95;;;;;13.00;95908.00;;;;8342058;22;20228;-75
2023/04/29 03:08:39;;;;;;;39.65;10.93;;;;;13.00;95916.00;;;;8323882;28;20200;-75
2023/04/29 03:12:42;;;;;;;38.42;10.00;;;;;13.10;95906.00;;;;8327173;28;20258;-76
2023/04/29 03:16:45;;;;;;;44.83;11.50;;;;;12.90;95903.00;;;;8327315;28;20204;-76
2023/04/29 03:20:50;;;;;;;57.80;11.35;;;;;13.00;95912.00;;;;8325970;28;20260;-76
2023/04/29 03:24:53;;;;;;;56.05;12.25;;;;;12.90;95910.00;;;;8327441;28;20537;-75
2023/04/29 03:28:59;;;;;;;40.90;11.25;;;;;12.90;95909.00;;;;8321293;28;20285;-76
2023/04/29 03:33:02;;;;;;;46.45;11.23;;;;;12.90;95909.00;;;;8326135;28;20197;-76
2023/04/29 03:37:09;;;;;;;40.83;10.73;;;;;12.90;95909.00;;;;8328274;28;20205;-76
2023/04/29 03:41:13;;;;;;;37.10;10.75;;;;;12.80;95912.00;;;;8328139;28;20690;-75
2023/04/29 03:45:17;;;;;;;46.63;12.63;;;;;12.80;95916.00;;;;8323269;28;20896;-76
2023/04/29 03:49:21;;;;;;;40.92;12.40;;;;;12.90;95912.00;;;;8326047;28;20225;-76
2023/04/29 03:53:26;;;;;;;48.80;13.88;;;;;12.90;95917.00;;;;8326920;28;20244;-76
2023/04/29 03:57:29;;;;;;;50.45;15.15;;;;;12.90;95913.00;;;;8324762;28;20264;-76
2023/04/29 04:01:36;;;;;;;49.42;13.88;;;;;12.80;95926.00;;;;8320906;28;20694;-76
2023/04/29 04:05:46;;;;;;;51.65;15.27;;;;;12.70;95921.00;;;;8303471;28;20850;-76
2023/04/29 04:09:51;;;;;;;59.30;15.77;;;;;12.60;95925.00;;;;8313404;28;20243;-76
2023/04/29 04:13:55;;;;;;;54.10;16.45;;;;;12.60;95915.00;;;;8317589;28;20737;-76
2023/04/29 04:18:01;;;;;;;56.00;16.13;;;;;12.60;95914.00;;;;8308733;28;20849;-75
2023/04/29 04:22:06;;;;;;;57.33;16.27;;;;;12.50;95909.00;;;;8307994;28;20233;-76
2023/04/29 04:26:11;;;;;;;60.85;16.55;;;;;12.40;95926.00;;;;8296595;28;20213;-75
2023/04/29 04:30:18;;;;;;;49.95;15.75;;;;;12.30;95924.00;;;;8298919;28;20706;-76
2023/04/29 04:34:21;;;;;;;51.47;15.23;;;;;12.30;95923.00;;;;8288448;28;20266;-75
2023/04/29 04:38:25;;;;;;;49.75;15.15;;;;;12.30;95920.00;;;;8312686;28;20211;-75
2023/04/29 04:42:31;;;;;;;43.40;14.40;;;;;12.20;95927.00;;;;8284287;28;20233;-75
2023/04/29 04:46:35;;;;;;;49.67;16.02;;;;;12.20;95931.00;;;;8292029;28;20876;-75
2023/04/29 04:50:38;;;;;;;44.90;15.82;;;;;12.30;95939.00;;;;8310043;28;20208;-75
2023/04/29 04:54:46;;;;;;;52.22;16.20;;;;;12.30;95938.00;;;;8300892;28;20585;-76
2023/04/29 04:58:51;;;;;;;57.38;17.35;;;;;12.50;95937.00;;;;8305147;28;20214;-75
2023/04/29 05:02:54;;;;;;;54.17;16.67;;;;;12.70;95940.00;;;;8314988;28;20310;-75
2023/04/29 05:06:57;;;;;;;47.97;16.15;;;;;12.90;95934.00;;;;8303873;28;20766;-74
2023/04/29 05:11:00;;;;;;;50.22;16.80;;;;;13.10;95931.00;;;;8295032;28;20209;-74
2023/04/29 05:15:05;;;;;;;49.38;16.95;;;;;13.10;95940.00;;;;8299676;28;20201;-74
2023/04/29 05:19:08;;;;;;;48.25;16.10;;;;;13.20;95953.00;;;;8306680;28;20197;-74
2023/04/29 05:23:13;;;;;;;55.67;17.17;;;;;13.40;95963.00;;;;8311120;28;20327;-73
2023/04/29 05:27:20;;;;;;;48.72;16.35;;;;;13.60;95955.00;;;;8298526;28;20204;-73
2023/04/29 05:31:27;;;;;;;47.10;16.38;;;;;13.80;95960.00;;;;8307604;28;20198;-74
2023/04/29 05:35:32;;;;;;;39.13;15.48;;;;;13.70;95956.00;;;;8298156;28;20228;-74
2023/04/29 05:39:35;;;;;;;49.22;16.08;;;;;13.70;95970.00;;;;8297501;28;20203;-73
2023/04/29 05:43:40;;;;;;;45.75;16.10;;;;;13.80;95979.00;;;;8304357;28;20305;-73
2023/04/29 05:47:45;;;;;;;47.35;16.92;;;;;13.90;95972.00;;;;8299670;28;20205;-73
2023/04/29 05:51:48;;;;;;;41.65;16.10;;;;;14.10;95988.00;;;;8304522;28;20631;-72
2023/04/29 05:55:54;;;;;;;41.75;16.15;;;;;14.40;95993.00;;;;8301663;28;20198;-71
2023/04/29 06:00:00;;;;;;;42.97;15.38;;;;;14.90;95995.00;;;;8300663;28;20193;-71
2023/04/29 06:04:08;;;;;;;36.90;15.02;;;;;14.90;96000.00;;;;8298081;28;20230;-72
2023/04/29 06:08:11;;;;;;;32.50;14.00;;;;;14.90;96001.00;;;;8300665;28;20681;-72
2023/04/29 06:12:14;;;;;;;39.03;14.25;;;;;14.90;95996.00;;;;8298955;28;20216;-72
2023/04/29 06:16:19;;;;;;;35.13;13.95;;;;;14.90;96009.00;;;;8301212;28;20256;-72
2023/04/29 06:20:31;;;;;;;36.03;13.75;;;;;15.10;96013.00;;;;8304406;28;20230;-71
2023/04/29 06:24:37;;;;;;;27.20;12.13;;;;;15.30;96017.00;;;;8303318;28;20794;-71
2023/04/29 06:28:42;;;;;;;32.67;11.50;;;;;15.20;96031.00;;;;8286995;28;20601;-72
2023/04/29 06:32:45;;;;;;;30.73;11.48;;;;;15.30;96036.00;;;;8305293;28;20654;-72
2023/04/29 06:36:50;;;;;;;21.10;9.82;;;;;15.40;96024.00;;;;8297797;28;20921;-72
2023/04/29 06:40:56;;;;;;;16.85;9.68;;;;;15.70;96025.00;;;;8255139;28;20643;-72
2023/04/29 06:44:59;;;;;;;18.42;8.65;;;;;15.80;96031.00;;;;8264396;28;20226;-72
2023/04/29 06:49:02;;;;;;;14.32;7.95;;;;;16.10;96031.00;;;;8261954;28;20210;-72
2023/04/29 06:53:11;;;;;;;13.88;7.53;;;;;16.30;96031.00;;;;8268928;28;20595;-72
2023/04/29 06:57:19;;;;;;;9.80;6.45;;;;;16.50;96034.00;;;;8270711;28;20203;-71
2023/04/29 07:01:22;;;;;;;7.53;5.97;;;;;16.70;96038.00;;;;8266918;28;20191;-71
2023/04/29 07:05:30;;;;;;;10.82;6.38;;;;;17.00;96046.00;;;;8269587;28;20354;-71
2023/04/29 07:09:37;;;;;;;9.25;6.03;;;;;17.30;96041.00;;;;8249624;28;20753;-72
2023/04/29 07:13:45;;;;;;;8.70;5.93;;;;;17.00;96052.00;;;;8251311;28;20244;-72
2023/04/29 07:17:48;;;;;;;6.68;5.72;;;;;17.10;96053.00;;;;8253253;28;20234;-71
2023/04/29 07:21:51;;;;;;;6.22;5.20;;;;;17.60;96056.00;;;;8262696;28;20226;-71
2023/04/29 07:25:56;;;;;;;8.80;5.57;;;;;18.30;96058.00;;;;8269324;28;20207;-71
2023/04/29 07:30:04;;;;;;;5.22;4.38;;;;;19.30;96062.00;;;;8265273;28;20199;-71
2023/04/29 07:34:09;;;;;;;6.30;5.20;;;;;19.80;96059.00;;;;8278928;28;20275;-70
2023/04/29 07:38:12;;;;;;;6.00;5.32;;;;;19.60;96066.00;;;;8270328;28;20206;-71
2023/04/29 07:42:20;;;;;;;5.10;4.60;;;;;19.30;96065.00;;;;8274658;28;20241;-71
2023/04/29 07:46:27;;;;;;;5.57;5.07;;;;;18.60;96071.00;;;;8270831;28;20595;-71
2023/04/29 07:50:30;;;;;;;6.88;4.95;;;;;18.30;96071.00;;;;8273332;28;20209;-73
2023/04/29 07:54:33;;;;;;;5.28;4.68;;;;;18.60;96075.00;;;;8267835;28;20206;-75
2023/04/29 07:58:38;;;;;;;8.75;4.28;;;;;19.20;96080.00;;;;8279603;28;20213;-72
2023/04/29 08:02:45;;;;;;;4.93;4.43;;;;;20.00;96083.00;;;;8274289;28;20660;-72
2023/04/29 08:06:50;;;;;;;5.18;4.60;;;;;20.40;96080.00;;;;8256933;28;20244;-73
2023/04/29 08:10:56;;;;;;;4.30;3.90;;;;;20.40;96080.00;;;;8271040;28;20851;-73
2023/04/29 08:15:01;;;;;;;3.88;3.58;;;;;20.10;96085.00;;;;8272143;28;20206;-70
2023/04/29 08:19:04;;;;;;;3.58;3.13;;;;;19.60;96088.00;;;;8270748;28;20257;-69
2023/04/29 08:23:09;;;;;;;5.13;3.53;;;;;19.60;96088.00;;;;8286976;28;20256;-69
2023/04/29 08:27:17;;;;;;;3.47;3.15;;;;;20.00;96097.00;;;;8281094;28;20293;-69
2023/04/29 08:31:22;;;;;;;3.78;3.42;;;;;19.90;96087.00;;;;8268969;28;20701;-69
2023/04/29 08:35:36;;;;;;;4.03;3.63;;;;;19.70;96097.00;;;;8268438;28;20285;-70
2023/04/29 08:39:39;;;;;;;4.60;4.07;;;;;19.60;96097.00;;;;8273464;28;20261;-69
2023/04/29 08:43:45;;;;;;;4.53;4.10;;;;;19.10;96105.00;;;;8272727;28;20229;-69
2023/04/29 08:47:51;;;;;;;5.57;4.70;;;;;18.70;96105.00;;;;8278328;28;20479;-69
2023/04/29 08:51:54;;;;;;;6.00;4.60;;;;;18.30;96103.00;;;;8267991;28;20194;-69
2023/04/29 08:56:03;;;;;;;5.30;4.30;;;;;18.20;96109.00;;;;8271346;28;20627;-69
2023/04/29 09:00:09;;;;;;;5.43;4.68;;;;;17.90;96106.00;;;;8266788;28;20195;-69
2023/04/29 09:04:24;;;;;;;9.63;5.03;;;;;17.80;96110.00;;;;8270963;28;20309;-69
2023/04/29 09:08:27;;;;;;;8.68;5.72;;;;;18.60;96104.00;;;;8268624;28;20203;-68
2023/04/29 09:12:34;;;;;;;6.13;4.57;;;;;19.30;96096.00;;;;8259800;28;20272;-68
2023/04/29 09:16:40;;;;;;;5.72;4.93;;;;;20.50;96101.00;;;;8261716;28;20198;-69
2023/04/29 09:20:47;;;;;;;4.53;4.05;;;;;20.80;96105.00;;;;8263920;28;20226;-69
2023/04/29 09:24:50;;;;;;;4.57;4.18;;;;;20.60;96106.00;;;;8271379;28;20598;-68
2023/04/29 09:29:08;;;;;;;4.63;4.03;;;;;20.10;96105.00;;;;8273375;28;20205;-68
2023/04/29 09:33:12;;;;;;;4.60;3.60;;;;;19.80;96106.00;;;;8270694;28;20199;-71
2023/04/29 09:37:26;;;;;;;4.53;3.88;;;;;19.60;96116.00;;;;8277105;28;20730;-69
2023/04/29 09:41:31;;;;;;;4.80;4.40;;;;;19.60;96115.00;;;;8270438;28;20233;-69
2023/04/29 09:45:35;;;;;;;4.57;3.92;;;;;19.60;96121.00;;;;8260292;28;20994;-69
2023/04/29 09:49:41;;;;;;;7.15;4.70;;;;;19.50;96122.00;;;;8270972;28;20612;-68
2023/04/29 09:53:45;;;;;;;5.20;4.70;;;;;19.30;96126.00;;;;8273703;28;20366;-69
2023/04/29 09:57:54;;;;;;;7.05;5.10;;;;;19.00;96130.00;;;;8266839;28;20276;-68
2023/04/29 10:01:58;;;;;;;5.55;5.05;;;;;18.70;96138.00;;;;8255690;28;21025;-69
2023/04/29 10:06:03;;;;;;;7.05;5.63;;;;;18.50;96141.00;;;;8265882;28;20238;-69
2023/04/29 10:10:11;;;;;;;9.77;6.30;;;;;18.40;96147.00;;;;8268513;28;20231;-68
2023/04/29 10:14:19;;;;;;;8.95;5.90;;;;;18.10;96148.00;;;;8267514;28;20214;-69
2023/04/29 10:18:30;;;;;;;7.95;6.57;;;;;17.70;96158.00;;;;8268411;28;20283;-70
2023/04/29 10:22:47;;;;;;;7.78;6.93;;;;;17.40;96152.00;;;;8262785;28;20211;-69
2023/04/29 10:26:55;;;;;;;9.98;7.20;;;;;17.50;96149.00;;;;8272871;28;20252;-68
2023/04/29 10:31:03;;;;;;;9.52;7.13;;;;;17.80;96151.00;;;;8271798;28;20261;-70
2023/04/29 10:35:09;;;;;;;9.30;7.20;;;;;18.30;96156.00;;;;8256484;28;20223;-68
2023/04/29 10:39:21;;;;;;;9.63;7.13;;;;;19.10;96147.00;;;;8273871;28;20272;-69
2023/04/29 10:43:27;;;;;;;7.70;6.57;;;;;20.40;96155.00;;;;8266789;28;20229;-67
2023/04/29 10:47:34;;;;;;;6.97;6.25;;;;;21.40;96144.00;;;;8278120;28;20248;-68
2023/04/29 10:51:45;;;;;;;7.50;6.70;;;;;21.30;96141.00;;;;8272211;28;20623;-68
2023/04/29 10:55:54;;;;;;;6.75;5.97;;;;;20.80;96136.00;;;;8272151;28;20859;-68
2023/04/29 10:59:59;;;;;;;6.60;5.18;;;;;20.10;96129.00;;;;8260917;28;20260;-68
2023/04/29 11:04:06;;;;;;;5.47;4.97;;;;;19.60;96145.00;;;;8250338;28;20316;-68
2023/04/29 11:08:11;;;;;;;6.05;5.45;;;;;19.00;96129.00;;;;8269018;28;20206;-68
2023/04/29 11:12:20;;;;;;;6.35;5.53;;;;;19.30;96133.00;;;;8270848;28;20194;-67
2023/04/29 11:16:28;;;;;;;6.95;5.35;;;;;19.70;96149.00;;;;8273622;28;20198;-68
2023/04/29 11:20:31;;;;;;;5.85;4.60;;;;;20.10;96144.00;;;;8280355;28;20249;-68
2023/04/29 11:24:35;;;;;;;5.18;4.57;;;;;20.20;96154.00;;;;8257524;28;20257;-68
2023/04/29 11:28:42;;;;;;;5.03;3.78;;;;;20.10;96156.00;;;;8275900;28;20203;-69
2023/04/29 11:32:50;;;;;;;6.28;4.00;;;;;19.80;96161.00;;;;8260143;28;20735;-70
2023/04/29 11:36:56;;;;;;;5.57;4.55;;;;;19.40;96156.00;;;;8273344;28;20199;-70
2023/04/29 11:41:01;;;;;;;7.38;4.13;;;;;19.10;96162.00;;;;8273183;28;20699;-70
2023/04/29 11:45:07;;;;;;;4.38;3.97;;;;;18.80;96172.00;;;;8270133;28;20226;-69
2023/04/29 11:49:21;;;;;;;6.47;4.57;;;;;18.60;96165.00;;;;8269665;28;20249;-69
2023/04/29 11:53:27;;;;;;;5.13;4.63;;;;;18.50;96163.00;;;;8267430;28;20198;-71
2023/04/29 11:57:34;;;;;;;6.25;4.75;;;;;18.60;96165.00;;;;8272151;28;20194;-68
2023/04/29 12:01:37;;;;;;;5.07;4.57;;;;;18.40;96168.00;;;;8278778;28;20261;-69
2023/04/29 12:05:51;;;;;;;6.38;4.60;;;;;18.40;96174.00;;;;8263142;28;20674;-70
2023/04/29 12:09:58;;;;;;;5.10;4.50;;;;;18.80;96184.00;;;;8271295;28;20278;-69
2023/04/29 12:14:05;;;;;;;4.82;4.43;;;;;19.10;96188.00;;;;8263444;28;20230;-76
2023/04/29 12:18:08;;;;;;;4.97;4.57;;;;;19.30;96173.00;;;;8265998;28;20210;-76
2023/04/29 12:22:13;;;;;;;4.93;4.40;;;;;19.20;96189.00;;;;8255486;28;20678;-79
2023/04/29 12:26:19;;;;;;;6.28;4.75;;;;;18.90;96185.00;;;;8255948;28;20230;-80
2023/04/29 12:30:26;;;;;;;4.90;4.50;;;;;18.90;96179.00;;;;8271553;28;20214;-77
2023/04/29 12:34:31;;;;;;;3.90;3.58;;;;;19.10;96177.00;;;;8256617;28;20270;-76
2023/04/29 12:38:53;;;;;;;5.97;4.15;;;;;19.20;96189.00;;;;8265612;28;20202;-75
2023/04/29 12:42:56;;;;;;;4.22;3.90;;;;;19.60;96179.00;;;;8267655;28;20215;-75
2023/04/29 12:47:08;;;;;;;4.55;4.03;;;;;19.70;96186.00;;;;8273172;28;20292;-81
2023/04/29 12:51:13;;;;;;;5.25;4.75;;;;;19.20;96197.00;;;;8270816;28;20205;-78
2023/04/29 12:55:18;;;;;;;4.85;4.35;;;;;18.80;96193.00;;;;8273718;28;20599;-78
2023/04/29 12:59:21;;;;;;;4.45;4.05;;;;;18.70;96199.00;;;;8269667;28;20228;-76
2023/04/29 13:03:26;;;;;;;4.78;4.35;;;;;18.70;96200.00;;;;8280854;28;20230;-78
2023/04/29 13:07:34;;;;;;;6.93;4.65;;;;;18.60;96195.00;;;;8260094;28;20306;-79
2023/04/29 13:11:42;;;;;;;5.20;4.53;;;;;18.60;96195.00;;;;8276825;28;20759;-82
2023/04/29 13:15:48;;;;;;;7.65;4.47;;;;;18.60;96188.00;;;;8276752;28;20281;-76
2023/04/29 13:19:53;;;;;;;5.05;4.43;;;;;18.70;96194.00;;;;8279103;28;20213;-78
2023/04/29 13:23:56;;;;;;;4.70;4.15;;;;;18.70;96196.00;;;;8274299;28;20241;-78
2023/04/29 13:28:01;;;;;;;4.57;4.18;;;;;18.90;96188.00;;;;8288271;28;20210;-76
2023/04/29 13:32:08;;;;;;;5.07;4.38;;;;;19.10;96194.00;;;;8280402;28;20672;-76
2023/04/29 13:36:11;;;;;;;5.68;5.00;;;;;19.40;96185.00;;;;8280770;28;20198;-78
2023/04/29 13:40:17;;;;;;;5.10;4.65;;;;;19.30;96182.00;;;;8284431;28;20221;-78
2023/04/29 13:44:31;;;;;;;5.80;4.90;;;;;19.10;96202.00;;;;8282998;28;20304;-78
2023/04/29 13:48:58;;;;;;;6.13;4.82;;;;;19.10;96183.00;;;;8270349;28;20201;-76
2023/04/29 13:53:06;;;;;;;8.20;5.30;;;;;19.00;96192.00;;;;8271689;28;21919;-76
2023/04/29 13:57:33;;;;;;;7.35;4.95;;;;;18.70;96194.00;;;;8267241;28;20205;-77
2023/04/29 14:01:40;;;;;;;5.72;4.65;;;;;18.60;96192.00;;;;8270817;28;20206;-80
2023/04/29 14:05:50;;;;;;;6.75;4.70;;;;;18.60;96196.00;;;;8265958;28;20618;-79
2023/04/29 14:09:54;;;;;;;4.55;4.15;;;;;18.70;96193.00;;;;8272402;28;20246;-75
2023/04/29 14:13:57;;;;;;;6.25;4.88;;;;;18.80;96199.00;;;;8254388;28;20236;-76
2023/04/29 14:18:02;;;;;;;6.53;4.53;;;;;19.00;96192.00;;;;8278854;28;20198;-81
2023/04/29 14:22:05;;;;;;;3.72;3.42;;;;;19.20;96202.00;;;;8267681;28;20731;-80
2023/04/29 14:26:10;;;;;;;4.18;3.85;;;;;19.30;96207.00;;;;8273918;28;20650;-79
2023/04/29 14:30:30;;;;;;;8.70;3.97;;;;;19.30;96210.00;;;;8275502;28;20193;-79
2023/04/29 14:34:34;;;;;;;6.22;4.07;;;;;19.50;96213.00;;;;8283091;28;20206;-82
2023/04/29 14:38:39;;;;;;;4.97;4.38;;;;;19.60;96213.00;;;;8280627;28;20268;-81
2023/04/29 14:42:46;;;;;;;8.45;4.30;;;;;19.70;96205.00;;;;8283709;28;20206;-78
2023/04/29 14:46:51;;;;;;;4.35;3.95;;;;;20.00;96214.00;;;;8278662;28;20653;-78
2023/04/29 14:50:58;;;;;;;3.72;3.42;;;;;20.00;96234.00;;;;8275980;28;20240;-80
2023/04/29 14:55:01;;;;;;;3.63;3.33;;;;;19.70;96231.00;;;;8282676;28;21174;-80
2023/04/29 14:59:07;;;;;;;4.65;3.33;;;;;19.60;96229.00;;;;8285775;28;20249;-75
2023/04/29 15:03:11;;;;;;;4.15;2.90;;;;;19.60;96239.00;;;;8284806;28;20258;-75
2023/04/29 15:07:25;;;;;;;2.95;2.75;;;;;19.40;96234.00;;;;8286837;28;20226;-75
2023/04/29 15:11:28;;;;;;;3.05;2.85;;;;;19.30;96243.00;;;;8287006;28;20193;-75
2023/04/29 15:15:32;;;;;;;3.10;2.85;;;;;19.10;96250.00;;;;8290000;28;20208;-75
2023/04/29 15:19:35;;;;;;;3.58;3.28;;;;;19.00;96250.00;;;;8286577;28;20927;-76
2023/04/29 15:23:39;;;;;;;7.05;3.47;;;;;18.70;96243.00;;;;8286908;28;20198;-75
2023/04/29 15:27:46;;;;;;;3.28;3.00;;;;;18.60;96256.00;;;;8271626;28;20225;-75
2023/04/29 15:31:51;;;;;;;3.90;3.42;;;;;18.50;96253.00;;;;8277568;28;20194;-75
2023/04/29 15:36:01;;;;;;;4.00;3.60;;;;;18.40;96258.00;;;;8289874;28;20206;-75
2023/04/29 15:40:10;;;;;;;3.90;3.50;;;;;18.40;96262.00;;;;8284309;28;20211;-76
2023/04/29 15:44:13;;;;;;;3.50;3.20;;;;;18.40;96274.00;;;;8281099;28;20264;-75
2023/04/29 15:48:20;;;;;;;3.30;3.00;;;;;18.20;96271.00;;;;8281701;28;20975;-76
2023/04/29 15:52:24;;;;;;;3.42;3.13;;;;;18.10;96278.00;;;;8278426;28;20206;-75
2023/04/29 15:56:29;;;;;;;4.00;3.60;;;;;17.90;96275.00;;;;8278973;28;20194;-75
2023/04/29 16:00:32;;;;;;;3.35;3.05;;;;;17.60;96277.00;;;;8278277;28;20198;-75
2023/04/29 16:04:36;;;;;;;4.03;3.15;;;;;17.60;96286.00;;;;8269027;28;20242;-74
2023/04/29 16:08:44;;;;;;;9.80;3.03;;;;;17.50;96290.00;;;;8281678;28;21511;-76
2023/04/29 16:12:49;;;;;;;6.20;3.03;;;;;17.40;96294.00;;;;8289757;28;20212;-75
2023/04/29 16:16:52;;;;;;;3.22;2.83;;;;;17.30;96288.00;;;;8282758;28;20206;-76
2023/04/29 16:20:57;;;;;;;2.78;2.58;;;;;17.30;96291.00;;;;8285298;28;20293;-76
2023/04/29 16:25:01;;;;;;;5.10;2.83;;;;;17.30;96294.00;;;;8285200;28;20222;-75
2023/04/29 16:29:08;;;;;;;3.17;2.97;;;;;17.20;96293.00;;;;8276752;28;20194;-75
2023/04/29 16:33:16;;;;;;;4.43;3.15;;;;;17.10;96295.00;;;;8284805;28;20602;-75
2023/04/29 16:37:20;;;;;;;3.15;2.88;;;;;17.00;96305.00;;;;8280976;28;20761;-75
2023/04/29 16:41:29;;;;;;;3.22;2.92;;;;;17.00;96312.00;;;;8283884;28;20194;-75
2023/04/29 16:45:36;;;;;;;4.03;2.78;;;;;16.90;96312.00;;;;8284782;28;20260;-75
2023/04/29 16:49:47;;;;;;;4.97;3.20;;;;;16.90;96320.00;;;;8271121;28;20203;-75
2023/04/29 16:53:54;;;;;;;3.22;3.03;;;;;16.90;96328.00;;;;8284988;28;20225;-76
2023/04/29 16:57:57;;;;;;;2.88;2.60;;;;;16.80;96315.00;;;;8285803;28;20795;-75
2023/04/29 17:02:05;;;;;;;5.65;3.40;;;;;16.80;96319.00;;;;8281355;28;20231;-75
2023/04/29 17:06:10;;;;;;;4.53;3.53;;;;;16.70;96330.00;;;;8263398;28;20764;-75
2023/04/29 17:10:14;;;;;;;4.28;3.60;;;;;16.60;96328.00;;;;8276028;28;20237;-76
2023/04/29 17:14:17;;;;;;;3.45;3.15;;;;;16.50;96330.00;;;;8283623;28;20206;-76
2023/04/29 17:18:24;;;;;;;5.25;3.40;;;;;16.40;96328.00;;;;8286871;28;20201;-75
2023/04/29 17:22:29;;;;;;;4.57;3.72;;;;;16.20;96344.00;;;;8286636;28;20194;-75
2023/04/29 17:26:32;;;;;;;4.45;3.80;;;;;15.90;96348.00;;;;8276077;28;20765;-73
2023/04/29 17:30:37;;;;;;;4.25;3.67;;;;;15.80;96341.00;;;;8281972;28;20213;-73
2023/04/29 17:34:46;;;;;;;112.22;71.70;;;;;15.80;96347.00;;;;8277911;28;20202;-71
2023/04/29 17:38:50;;;;;;;7.25;4.20;;;;;15.80;96345.00;;;;8278230;28;20210;-73
2023/04/29 17:42:56;;;;;;;4.97;3.80;;;;;15.70;96358.00;;;;8287127;28;20198;-72
2023/04/29 17:47:00;;;;;;;5.03;4.03;;;;;15.70;96361.00;;;;8276968;28;20675;-72
2023/04/29 17:51:07;;;;;;;10.23;4.28;;;;;15.60;96358.00;;;;8274109;28;20202;-75
2023/04/29 17:55:10;;;;;;;7.57;4.07;;;;;15.50;96358.00;;;;8276283;28;20209;-77
2023/04/29 17:59:16;;;;;;;4.38;3.97;;;;;15.40;96361.00;;;;8255943;28;20203;-74
2023/04/29 18:03:19;;;;;;;33.75;21.67;;;;;15.30;96371.00;;;;8259758;28;20241;-73
2023/04/29 18:07:24;;;;;;;34.80;16.38;;;;;15.20;96369.00;;;;8264603;28;20289;-74
2023/04/29 18:11:27;;;;;;;51.63;27.13;;;;;15.10;96370.00;;;;8270817;28;20233;-74
2023/04/29 18:15:30;;;;;;;6.80;4.05;;;;;15.00;96373.00;;;;8263192;28;20199;-74
2023/04/29 18:19:33;;;;;;;4.47;4.00;;;;;14.80;96380.00;;;;8264871;28;20199;-76
2023/04/29 18:23:39;;;;;;;5.95;3.95;;;;;14.70;96379.00;;;;8269458;28;20210;-75
2023/04/29 18:27:43;;;;;;;13.18;6.30;;;;;14.50;96387.00;;;;8271085;28;20575;-75
2023/04/29 18:31:48;;;;;;;5.63;4.40;;;;;14.40;96384.00;;;;8266568;28;20337;-74
2023/04/29 18:35:53;;;;;;;6.43;4.90;;;;;14.20;96378.00;;;;8267024;28;20207;-74
2023/04/29 18:40:07;;;;;;;7.47;4.13;;;;;14.00;96382.00;;;;8242165;28;20198;-75
2023/04/29 18:44:13;;;;;;;5.60;4.45;;;;;13.90;96389.00;;;;8263399;28;20286;-74
2023/04/29 18:48:16;;;;;;;5.80;4.63;;;;;13.80;96400.00;;;;8263123;28;20341;-75
2023/04/29 18:52:26;;;;;;;5.22;3.90;;;;;13.70;96410.00;;;;8264594;28;20233;-74
2023/04/29 18:56:32;;;;;;;6.65;4.20;;;;;13.70;96411.00;;;;8264205;28;20929;-74
2023/04/29 19:00:35;;;;;;;4.63;3.83;;;;;13.70;96420.00;;;;8262547;28;20214;-74
2023/04/29 19:04:38;;;;;;;11.48;4.00;;;;;13.80;96417.00;;;;8264891;28;20234;-74
2023/04/29 19:08:44;;;;;;;5.28;3.70;;;;;13.80;96429.00;;;;8262129;28;20275;-74
2023/04/29 19:12:48;;;;;;;3.55;3.22;;;;;13.70;96424.00;;;;8262113;28;20216;-73
2023/04/29 19:16:53;;;;;;;3.05;2.67;;;;;13.70;96429.00;;;;8267437;28;20210;-74
2023/04/29 19:20:57;;;;;;;3.08;2.78;;;;;13.80;96425.00;;;;8276270;28;20611;-74
2023/04/29 19:25:00;;;;;;;6.22;2.40;;;;;13.80;96431.00;;;;8269160;28;20191;-74
2023/04/29 19:29:06;;;;;;;4.25;2.67;;;;;13.80;96438.00;;;;8256956;28;20229;-75
2023/04/29 19:33:11;;;;;;;2.10;2.00;;;;;13.90;96446.00;;;;8258862;28;20210;-74
2023/04/29 19:37:22;;;;;;;2.15;2.05;;;;;13.90;96444.00;;;;8269215;28;20202;-72
2023/04/29 19:41:27;;;;;;;2.00;1.90;;;;;13.90;96443.00;;;;8270671;28;20203;-78
2023/04/29 19:45:34;;;;;;;3.88;2.03;;;;;13.90;96450.00;;;;8269386;28;20209;-75
2023/04/29 19:49:38;;;;;;;2.30;2.10;;;;;13.80;96456.00;;;;8270659;28;20230;-75
2023/04/29 19:53:41;;;;;;;4.10;2.90;;;;;13.80;96461.00;;;;8269714;28;20248;-73
2023/04/29 19:57:44;;;;;;;2.72;2.53;;;;;13.80;96459.00;;;;8270054;28;20206;-73
2023/04/29 20:01:51;;;;;;;4.35;2.30;;;;;13.80;96459.00;;;;8265842;28;20973;-74
2023/04/29 20:05:55;;;;;;;2.97;2.25;;;;;13.70;96459.00;;;;8273393;28;20841;-73
2023/04/29 20:09:59;;;;;;;4.35;3.90;;;;;13.70;96460.00;;;;8272554;28;20230;-73
2023/04/29 20:14:02;;;;;;;7.72;4.80;;;;;13.60;96461.00;;;;8273117;28;20332;-73
2023/04/29 20:18:07;;;;;;;7.63;5.47;;;;;13.50;96454.00;;;;8269493;28;20211;-73
2023/04/29 20:22:12;;;;;;;9.35;5.45;;;;;13.40;96457.00;;;;8246092;28;20204;-74